Terminal Aerodrome Forecast
Issued by NWS Hastings, NE

Home | Current Version | Previous Version | Text Only | Print | Product List | Glossary On
Versions: 1 2 3 4 5 6 7 8 9 10 11 12 13 14 15 16 17 18 19 20 21 22
000
FTUS45 KGID 292108 AAA
TAFEAR
TAF AMD
KEAR 292108Z 2921/3018 06015KT P6SM VCSH OVC012
     FM292300 05016G23KT 3SM -RA OVC003
     FM300800 03015G23KT 3SM -RA OVC008
     FM301200 03013G22KT 2SM -RADZ OVC003=

USA.gov is the U.S. government's official web portal to all federal, state and local government web resources and services.